sensor_id;sensor_type;location;lat;lon;timestamp;pressure;altitude;pressure_sealevel;temperature;humidity
51468;BME280;37545;45.302;-122.946;2022-11-20T00:01:51;101749.38;;;9.51;36.18
51468;BME280;37545;45.302;-122.946;2022-11-20T00:04:20;101752.59;;;9.47;36.23
51468;BME280;37545;45.302;-122.946;2022-11-20T00:06:48;101753.03;;;9.38;34.86
51468;BME280;37545;45.302;-122.946;2022-11-20T00:09:17;101759.56;;;9.31;34.75
51468;BME280;37545;45.302;-122.946;2022-11-20T00:11:48;101753.13;;;9.23;35.86
51468;BME280;37545;45.302;-122.946;2022-11-20T00:14:18;101754.28;;;9.12;36.15
51468;BME280;37545;45.302;-122.946;2022-11-20T00:16:47;101757.19;;;9.01;38.04
51468;BME280;37545;45.302;-122.946;2022-11-20T00:19:16;101750.44;;;8.87;37.04
51468;BME280;37545;45.302;-122.946;2022-11-20T00:21:47;101756.72;;;8.76;36.34
51468;BME280;37545;45.302;-122.946;2022-11-20T00:24:17;101760.56;;;8.68;36.32
51468;BME280;37545;45.302;-122.946;2022-11-20T00:26:46;101758.31;;;8.57;36.84
51468;BME280;37545;45.302;-122.946;2022-11-20T00:29:15;101756.03;;;8.47;37.21
51468;BME280;37545;45.302;-122.946;2022-11-20T00:31:45;101762.47;;;8.39;37.01
51468;BME280;37545;45.302;-122.946;2022-11-20T00:34:14;101760.00;;;8.26;39.25
51468;BME280;37545;45.302;-122.946;2022-11-20T00:36:42;101759.34;;;8.13;37.62
51468;BME280;37545;45.302;-122.946;2022-11-20T00:39:11;101757.75;;;8.01;37.13
51468;BME280;37545;45.302;-122.946;2022-11-20T00:41:40;101758.84;;;7.89;37.96
51468;BME280;37545;45.302;-122.946;2022-11-20T00:44:08;101757.44;;;7.80;38.48
51468;BME280;37545;45.302;-122.946;2022-11-20T00:46:37;101758.53;;;7.68;38.79
51468;BME280;37545;45.302;-122.946;2022-11-20T00:49:07;101766.50;;;7.58;38.99
51468;BME280;37545;45.302;-122.946;2022-11-20T00:51:36;101770.25;;;7.48;39.30
51468;BME280;37545;45.302;-122.946;2022-11-20T00:54:05;101773.16;;;7.40;38.96
51468;BME280;37545;45.302;-122.946;2022-11-20T00:56:33;101777.09;;;7.33;40.43
51468;BME280;37545;45.302;-122.946;2022-11-20T00:59:05;101784.34;;;7.25;39.63
51468;BME280;37545;45.302;-122.946;2022-11-20T01:01:34;101785.59;;;7.17;40.59
51468;BME280;37545;45.302;-122.946;2022-11-20T01:04:06;101784.13;;;7.07;39.72
51468;BME280;37545;45.302;-122.946;2022-11-20T01:06:35;101783.69;;;7.00;39.86
51468;BME280;37545;45.302;-122.946;2022-11-20T01:09:07;101776.38;;;6.92;40.08
51468;BME280;37545;45.302;-122.946;2022-11-20T01:11:37;101776.81;;;6.85;40.55
51468;BME280;37545;45.302;-122.946;2022-11-20T01:14:09;101765.41;;;6.67;41.07
51468;BME280;37545;45.302;-122.946;2022-11-20T01:16:39;101792.13;;;6.69;41.51
51468;BME280;37545;45.302;-122.946;2022-11-20T01:19:12;101786.41;;;6.60;40.94
51468;BME280;37545;45.302;-122.946;2022-11-20T01:21:44;101797.19;;;6.54;41.44
51468;BME280;37545;45.302;-122.946;2022-11-20T01:24:15;101797.78;;;6.50;40.62
51468;BME280;37545;45.302;-122.946;2022-11-20T01:26:45;101801.84;;;6.46;41.97
51468;BME280;37545;45.302;-122.946;2022-11-20T01:29:17;101799.00;;;6.42;41.90
51468;BME280;37545;45.302;-122.946;2022-11-20T01:31:46;101791.06;;;6.39;41.69
51468;BME280;37545;45.302;-122.946;2022-11-20T01:34:18;101799.28;;;6.33;41.84
51468;BME280;37545;45.302;-122.946;2022-11-20T01:36:50;101794.56;;;6.26;42.80
51468;BME280;37545;45.302;-122.946;2022-11-20T01:39:20;101802.84;;;6.22;43.20
51468;BME280;37545;45.302;-122.946;2022-11-20T01:41:50;101799.31;;;6.20;42.29
51468;BME280;37545;45.302;-122.946;2022-11-20T01:44:54;101802.09;;;6.10;42.73
51468;BME280;37545;45.302;-122.946;2022-11-20T01:47:28;101801.88;;;6.06;42.71
51468;BME280;37545;45.302;-122.946;2022-11-20T01:50:04;101803.66;;;6.07;43.42
51468;BME280;37545;45.302;-122.946;2022-11-20T01:52:36;101796.72;;;6.06;42.84
51468;BME280;37545;45.302;-122.946;2022-11-20T01:55:10;101814.22;;;5.99;43.04
51468;BME280;37545;45.302;-122.946;2022-11-20T01:57:41;101821.81;;;5.97;43.22
51468;BME280;37545;45.302;-122.946;2022-11-20T02:00:11;101819.81;;;5.93;42.74
51468;BME280;37545;45.302;-122.946;2022-11-20T02:02:43;101829.72;;;5.87;43.23
51468;BME280;37545;45.302;-122.946;2022-11-20T02:05:20;101828.72;;;5.85;42.73
51468;BME280;37545;45.302;-122.946;2022-11-20T02:07:51;101832.84;;;5.83;42.27
51468;BME280;37545;45.302;-122.946;2022-11-20T02:10:24;101840.56;;;5.83;43.55
51468;BME280;37545;45.302;-122.946;2022-11-20T02:12:53;101836.22;;;5.82;43.33
51468;BME280;37545;45.302;-122.946;2022-11-20T02:15:39;101840.44;;;5.81;44.22
51468;BME280;37545;45.302;-122.946;2022-11-20T02:18:10;101839.38;;;5.78;43.41
51468;BME280;37545;45.302;-122.946;2022-11-20T02:20:42;101840.94;;;5.76;43.38
51468;BME280;37545;45.302;-122.946;2022-11-20T02:23:15;101844.09;;;5.72;43.80
51468;BME280;37545;45.302;-122.946;2022-11-20T02:25:47;101836.09;;;5.67;44.84
51468;BME280;37545;45.302;-122.946;2022-11-20T02:28:17;101834.78;;;5.60;44.41
51468;BME280;37545;45.302;-122.946;2022-11-20T02:30:46;101829.16;;;5.53;43.52
51468;BME280;37545;45.302;-122.946;2022-11-20T02:33:15;101832.19;;;5.47;44.26
51468;BME280;37545;45.302;-122.946;2022-11-20T02:35:45;101833.66;;;5.43;44.29
51468;BME280;37545;45.302;-122.946;2022-11-20T02:38:14;101836.00;;;5.40;44.53
51468;BME280;37545;45.302;-122.946;2022-11-20T02:40:43;101832.16;;;5.34;44.93
51468;BME280;37545;45.302;-122.946;2022-11-20T02:43:16;101827.66;;;5.18;44.98
51468;BME280;37545;45.302;-122.946;2022-11-20T02:45:44;101834.13;;;5.13;45.61
51468;BME280;37545;45.302;-122.946;2022-11-20T02:48:15;101834.81;;;5.10;45.64
51468;BME280;37545;45.302;-122.946;2022-11-20T02:50:43;101837.94;;;5.06;45.15
51468;BME280;37545;45.302;-122.946;2022-11-20T02:53:12;101835.75;;;4.99;45.76
51468;BME280;37545;45.302;-122.946;2022-11-20T02:55:41;101830.22;;;4.93;45.65
51468;BME280;37545;45.302;-122.946;2022-11-20T02:58:09;101843.41;;;4.86;45.68
51468;BME280;37545;45.302;-122.946;2022-11-20T03:00:40;101846.59;;;4.83;46.36
51468;BME280;37545;45.302;-122.946;2022-11-20T03:03:09;101853.22;;;4.79;46.32
51468;BME280;37545;45.302;-122.946;2022-11-20T03:05:37;101852.22;;;4.77;47.35
51468;BME280;37545;45.302;-122.946;2022-11-20T03:08:06;101855.53;;;4.76;47.72
51468;BME280;37545;45.302;-122.946;2022-11-20T03:10:35;101850.41;;;4.76;47.35
51468;BME280;37545;45.302;-122.946;2022-11-20T03:13:04;101855.44;;;4.75;47.80
51468;BME280;37545;45.302;-122.946;2022-11-20T03:15:32;101854.44;;;4.73;47.74
51468;BME280;37545;45.302;-122.946;2022-11-20T03:18:03;101854.34;;;4.71;47.48
51468;BME280;37545;45.302;-122.946;2022-11-20T03:20:34;101855.88;;;4.69;46.54
51468;BME280;37545;45.302;-122.946;2022-11-20T03:23:03;101858.38;;;4.68;46.74
51468;BME280;37545;45.302;-122.946;2022-11-20T03:25:32;101869.50;;;4.68;46.96
51468;BME280;37545;45.302;-122.946;2022-11-20T03:28:00;101864.38;;;4.68;47.67
51468;BME280;37545;45.302;-122.946;2022-11-20T03:30:29;101869.31;;;4.65;47.65
51468;BME280;37545;45.302;-122.946;2022-11-20T03:32:58;101875.31;;;4.66;46.48
51468;BME280;37545;45.302;-122.946;2022-11-20T03:35:28;101867.50;;;4.64;46.83
51468;BME280;37545;45.302;-122.946;2022-11-20T03:37:58;101877.75;;;4.64;47.18
51468;BME280;37545;45.302;-122.946;2022-11-20T03:40:26;101880.19;;;4.62;48.26
51468;BME280;37545;45.302;-122.946;2022-11-20T03:42:55;101883.34;;;4.58;48.31
51468;BME280;37545;45.302;-122.946;2022-11-20T03:45:24;101888.34;;;4.57;48.68
51468;BME280;37545;45.302;-122.946;2022-11-20T03:47:52;101901.16;;;4.57;47.22
51468;BME280;37545;45.302;-122.946;2022-11-20T03:50:21;101901.97;;;4.56;47.36
51468;BME280;37545;45.302;-122.946;2022-11-20T03:52:51;101895.84;;;4.54;47.25
51468;BME280;37545;45.302;-122.946;2022-11-20T03:55:20;101899.97;;;4.52;48.36
51468;BME280;37545;45.302;-122.946;2022-11-20T03:57:49;101897.41;;;4.52;47.71
51468;BME280;37545;45.302;-122.946;2022-11-20T04:00:18;101893.81;;;4.50;48.51
51468;BME280;37545;45.302;-122.946;2022-11-20T04:02:46;101891.13;;;4.48;47.59
51468;BME280;37545;45.302;-122.946;2022-11-20T04:05:15;101885.13;;;4.48;47.80
51468;BME280;37545;45.302;-122.946;2022-11-20T04:07:44;101892.94;;;4.49;46.87
51468;BME280;37545;45.302;-122.946;2022-11-20T04:10:17;101882.25;;;4.43;48.78
51468;BME280;37545;45.302;-122.946;2022-11-20T04:12:46;101887.56;;;4.46;49.01
51468;BME280;37545;45.302;-122.946;2022-11-20T04:15:14;101884.00;;;4.44;48.72
51468;BME280;37545;45.302;-122.946;2022-11-20T04:17:43;101889.81;;;4.41;48.86
51468;BME280;37545;45.302;-122.946;2022-11-20T04:20:11;101891.34;;;4.39;47.89
51468;BME280;37545;45.302;-122.946;2022-11-20T04:22:41;101895.38;;;4.36;47.59
51468;BME280;37545;45.302;-122.946;2022-11-20T04:25:09;101896.50;;;4.28;47.98
51468;BME280;37545;45.302;-122.946;2022-11-20T04:27:40;101908.53;;;4.29;49.68
51468;BME280;37545;45.302;-122.946;2022-11-20T04:30:09;101908.28;;;4.26;48.38
51468;BME280;37545;45.302;-122.946;2022-11-20T04:32:38;101908.97;;;4.23;49.32
51468;BME280;37545;45.302;-122.946;2022-11-20T04:35:07;101910.53;;;4.21;50.42
51468;BME280;37545;45.302;-122.946;2022-11-20T04:37:36;101911.09;;;4.17;49.80
51468;BME280;37545;45.302;-122.946;2022-11-20T04:40:05;101919.53;;;4.16;50.39
51468;BME280;37545;45.302;-122.946;2022-11-20T04:42:34;101926.13;;;4.12;50.18
51468;BME280;37545;45.302;-122.946;2022-11-20T04:45:08;101923.31;;;4.09;48.97
51468;BME280;37545;45.302;-122.946;2022-11-20T04:47:37;101929.09;;;4.07;49.17
51468;BME280;37545;45.302;-122.946;2022-11-20T04:50:06;101928.75;;;4.02;49.49
51468;BME280;37545;45.302;-122.946;2022-11-20T04:52:35;101925.72;;;3.96;49.09
51468;BME280;37545;45.302;-122.946;2022-11-20T04:55:07;101923.50;;;3.89;49.54
51468;BME280;37545;45.302;-122.946;2022-11-20T04:57:36;101917.59;;;3.78;49.98
51468;BME280;37545;45.302;-122.946;2022-11-20T05:00:07;101918.47;;;3.78;50.37
51468;BME280;37545;45.302;-122.946;2022-11-20T05:02:36;101918.88;;;3.73;50.06
51468;BME280;37545;45.302;-122.946;2022-11-20T05:05:05;101909.50;;;3.62;51.24
51468;BME280;37545;45.302;-122.946;2022-11-20T05:07:34;101925.88;;;3.64;49.99
51468;BME280;37545;45.302;-122.946;2022-11-20T05:10:03;101925.06;;;3.53;50.09
51468;BME280;37545;45.302;-122.946;2022-11-20T05:12:32;101925.34;;;3.46;49.93
51468;BME280;37545;45.302;-122.946;2022-11-20T05:15:00;101931.03;;;3.42;50.41
51468;BME280;37545;45.302;-122.946;2022-11-20T05:17:31;101936.69;;;3.38;50.81
51468;BME280;37545;45.302;-122.946;2022-11-20T05:20:00;101929.66;;;3.35;50.37
51468;BME280;37545;45.302;-122.946;2022-11-20T05:22:28;101929.41;;;3.32;50.51
51468;BME280;37545;45.302;-122.946;2022-11-20T05:24:57;101933.19;;;3.25;50.85
51468;BME280;37545;45.302;-122.946;2022-11-20T05:27:25;101931.03;;;3.20;51.02
51468;BME280;37545;45.302;-122.946;2022-11-20T05:30:03;101943.44;;;3.15;50.97
51468;BME280;37545;45.302;-122.946;2022-11-20T05:32:34;101946.44;;;3.09;51.38
51468;BME280;37545;45.302;-122.946;2022-11-20T05:35:03;101946.16;;;3.06;51.97
51468;BME280;37545;45.302;-122.946;2022-11-20T05:37:32;101939.28;;;3.05;52.71
51468;BME280;37545;45.302;-122.946;2022-11-20T05:40:03;101946.81;;;3.04;51.78
51468;BME280;37545;45.302;-122.946;2022-11-20T05:42:32;101955.16;;;3.01;51.79
51468;BME280;37545;45.302;-122.946;2022-11-20T05:45:01;101954.78;;;2.97;51.85
51468;BME280;37545;45.302;-122.946;2022-11-20T05:47:37;101950.97;;;2.91;52.19
51468;BME280;37545;45.302;-122.946;2022-11-20T05:50:07;101950.25;;;2.82;52.00
51468;BME280;37545;45.302;-122.946;2022-11-20T05:52:35;101958.81;;;2.83;52.94
51468;BME280;37545;45.302;-122.946;2022-11-20T05:55:05;101958.56;;;2.80;53.73
51468;BME280;37545;45.302;-122.946;2022-11-20T05:57:33;101962.66;;;2.78;53.75
51468;BME280;37545;45.302;-122.946;2022-11-20T06:00:03;101960.75;;;2.75;52.48
51468;BME280;37545;45.302;-122.946;2022-11-20T06:02:36;101960.41;;;2.70;53.21
51468;BME280;37545;45.302;-122.946;2022-11-20T06:05:05;101972.03;;;2.67;53.46
51468;BME280;37545;45.302;-122.946;2022-11-20T06:07:34;101969.22;;;2.64;53.64
51468;BME280;37545;45.302;-122.946;2022-11-20T06:10:03;101963.75;;;2.49;53.21
51468;BME280;37545;45.302;-122.946;2022-11-20T06:12:34;101967.09;;;2.48;53.58
51468;BME280;37545;45.302;-122.946;2022-11-20T06:15:03;101971.94;;;2.45;54.14
51468;BME280;37545;45.302;-122.946;2022-11-20T06:17:32;101971.69;;;2.42;53.88
51468;BME280;37545;45.302;-122.946;2022-11-20T06:20:06;101972.09;;;2.36;54.52
51468;BME280;37545;45.302;-122.946;2022-11-20T06:22:37;101979.63;;;2.35;54.74
51468;BME280;37545;45.302;-122.946;2022-11-20T06:25:06;101977.56;;;2.30;54.47
51468;BME280;37545;45.302;-122.946;2022-11-20T06:27:35;101972.22;;;2.27;55.24
51468;BME280;37545;45.302;-122.946;2022-11-20T06:30:12;101975.94;;;2.21;55.00
51468;BME280;37545;45.302;-122.946;2022-11-20T06:32:41;101970.44;;;2.16;55.63
51468;BME280;37545;45.302;-122.946;2022-11-20T06:35:11;101972.75;;;2.13;55.63
51468;BME280;37545;45.302;-122.946;2022-11-20T06:37:40;101963.94;;;2.09;55.52
51468;BME280;37545;45.302;-122.946;2022-11-20T06:40:15;101955.13;;;2.06;56.64
51468;BME280;37545;45.302;-122.946;2022-11-20T06:42:44;101952.31;;;2.03;56.58
51468;BME280;37545;45.302;-122.946;2022-11-20T06:45:13;101951.28;;;2.01;56.34
51468;BME280;37545;45.302;-122.946;2022-11-20T06:47:41;101956.91;;;1.97;56.65
51468;BME280;37545;45.302;-122.946;2022-11-20T06:52:40;101958.19;;;1.92;56.64
51468;BME280;37545;45.302;-122.946;2022-11-20T06:55:09;101963.94;;;1.89;56.26
51468;BME280;37545;45.302;-122.946;2022-11-20T06:57:37;101955.91;;;1.84;56.72
51468;BME280;37545;45.302;-122.946;2022-11-20T07:00:07;101965.06;;;1.82;56.30
51468;BME280;37545;45.302;-122.946;2022-11-20T07:02:36;101963.94;;;1.79;57.06
51468;BME280;37545;45.302;-122.946;2022-11-20T07:05:06;101967.09;;;1.76;57.35
51468;BME280;37545;45.302;-122.946;2022-11-20T07:07:37;101957.94;;;1.68;57.26
51468;BME280;37545;45.302;-122.946;2022-11-20T07:10:06;101969.41;;;1.73;58.12
51468;BME280;37545;45.302;-122.946;2022-11-20T07:12:35;101972.47;;;1.69;58.07
51468;BME280;37545;45.302;-122.946;2022-11-20T07:15:09;101976.53;;;1.67;57.11
51468;BME280;37545;45.302;-122.946;2022-11-20T07:17:37;101976.28;;;1.64;57.34
51468;BME280;37545;45.302;-122.946;2022-11-20T07:20:07;101973.47;;;1.61;57.51
51468;BME280;37545;45.302;-122.946;2022-11-20T07:22:37;101989.53;;;1.60;57.65
51468;BME280;37545;45.302;-122.946;2022-11-20T07:25:07;101974.72;;;1.56;58.61
51468;BME280;37545;45.302;-122.946;2022-11-20T07:27:36;101980.59;;;1.55;58.23
51468;BME280;37545;45.302;-122.946;2022-11-20T07:30:06;101981.38;;;1.54;58.84
51468;BME280;37545;45.302;-122.946;2022-11-20T07:32:35;101988.00;;;1.52;57.92
51468;BME280;37545;45.302;-122.946;2022-11-20T07:35:07;101999.59;;;1.48;57.85
51468;BME280;37545;45.302;-122.946;2022-11-20T07:37:37;101990.03;;;1.45;58.24
51468;BME280;37545;45.302;-122.946;2022-11-20T07:40:06;101998.44;;;1.44;58.46
51468;BME280;37545;45.302;-122.946;2022-11-20T07:42:35;101985.41;;;1.41;59.54
51468;BME280;37545;45.302;-122.946;2022-11-20T07:45:04;102000.84;;;1.43;59.75
51468;BME280;37545;45.302;-122.946;2022-11-20T07:47:35;102004.94;;;1.41;58.83
51468;BME280;37545;45.302;-122.946;2022-11-20T07:50:05;101996.25;;;1.39;60.23
51468;BME280;37545;45.302;-122.946;2022-11-20T07:52:34;101996.88;;;1.36;59.96
51468;BME280;37545;45.302;-122.946;2022-11-20T07:55:05;102005.31;;;1.35;60.25
51468;BME280;37545;45.302;-122.946;2022-11-20T07:57:34;102006.84;;;1.33;60.04
51468;BME280;37545;45.302;-122.946;2022-11-20T08:00:03;102007.47;;;1.31;60.03
51468;BME280;37545;45.302;-122.946;2022-11-20T08:02:37;101999.53;;;1.28;59.17
51468;BME280;37545;45.302;-122.946;2022-11-20T08:05:07;101999.41;;;1.26;59.26
51468;BME280;37545;45.302;-122.946;2022-11-20T08:07:38;101994.03;;;1.23;59.78
51468;BME280;37545;45.302;-122.946;2022-11-20T08:10:10;101980.97;;;1.10;60.05
51468;BME280;37545;45.302;-122.946;2022-11-20T08:12:44;102000.38;;;1.18;61.15
51468;BME280;37545;45.302;-122.946;2022-11-20T08:15:30;101982.41;;;1.16;60.43
51468;BME280;37545;45.302;-122.946;2022-11-20T08:18:04;101986.63;;;1.16;60.96
51468;BME280;37545;45.302;-122.946;2022-11-20T08:20:36;101980.63;;;1.15;60.26
51468;BME280;37545;45.302;-122.946;2022-11-20T08:23:05;101974.66;;;1.15;60.38
51468;BME280;37545;45.302;-122.946;2022-11-20T08:25:37;101979.75;;;1.15;60.64
51468;BME280;37545;45.302;-122.946;2022-11-20T08:28:07;101976.16;;;1.13;60.28
51468;BME280;37545;45.302;-122.946;2022-11-20T08:30:36;101979.59;;;1.13;60.78
51468;BME280;37545;45.302;-122.946;2022-11-20T08:33:07;101976.91;;;1.12;60.90
51468;BME280;37545;45.302;-122.946;2022-11-20T08:35:36;101980.09;;;1.09;61.15
51468;BME280;37545;45.302;-122.946;2022-11-20T08:38:05;101985.03;;;1.08;60.76
51468;BME280;37545;45.302;-122.946;2022-11-20T08:40:38;101984.16;;;1.07;60.60
51468;BME280;37545;45.302;-122.946;2022-11-20T08:43:07;101975.63;;;1.07;61.49
51468;BME280;37545;45.302;-122.946;2022-11-20T08:45:35;101947.41;;;0.95;61.79
51468;BME280;37545;45.302;-122.946;2022-11-20T08:48:05;101968.75;;;1.06;61.46
51468;BME280;37545;45.302;-122.946;2022-11-20T08:50:34;101970.53;;;1.07;61.35
51468;BME280;37545;45.302;-122.946;2022-11-20T08:53:05;101971.41;;;1.07;61.46
51468;BME280;37545;45.302;-122.946;2022-11-20T08:55:34;101972.03;;;1.04;60.90
51468;BME280;37545;45.302;-122.946;2022-11-20T08:58:05;101977.13;;;1.04;61.30
51468;BME280;37545;45.302;-122.946;2022-11-20T09:00:34;101978.94;;;1.06;60.78
51468;BME280;37545;45.302;-122.946;2022-11-20T09:03:03;101974.72;;;1.06;61.22
51468;BME280;37545;45.302;-122.946;2022-11-20T09:05:32;101978.94;;;1.06;61.54
51468;BME280;37545;45.302;-122.946;2022-11-20T09:08:00;101980.72;;;1.07;60.85
51468;BME280;37545;45.302;-122.946;2022-11-20T09:10:29;101967.81;;;1.05;60.88
51468;BME280;37545;45.302;-122.946;2022-11-20T09:12:58;101974.44;;;1.03;60.99
51468;BME280;37545;45.302;-122.946;2022-11-20T09:15:30;101981.34;;;1.04;61.03
51468;BME280;37545;45.302;-122.946;2022-11-20T09:18:01;101969.34;;;1.03;60.56
51468;BME280;37545;45.302;-122.946;2022-11-20T09:20:31;101978.66;;;1.02;61.32
51468;BME280;37545;45.302;-122.946;2022-11-20T09:23:00;101978.41;;;0.99;60.76
51468;BME280;37545;45.302;-122.946;2022-11-20T09:25:28;101987.72;;;0.99;61.39
51468;BME280;37545;45.302;-122.946;2022-11-20T09:27:57;101982.94;;;0.93;60.65
51468;BME280;37545;45.302;-122.946;2022-11-20T09:30:27;101974.00;;;0.88;60.69
51468;BME280;37545;45.302;-122.946;2022-11-20T09:32:57;101979.09;;;0.88;61.13
51468;BME280;37545;45.302;-122.946;2022-11-20T09:35:26;101985.72;;;0.86;61.09
51468;BME280;37545;45.302;-122.946;2022-11-20T09:37:54;101982.28;;;0.86;61.77
51468;BME280;37545;45.302;-122.946;2022-11-20T09:40:25;101982.78;;;0.81;61.73
51468;BME280;37545;45.302;-122.946;2022-11-20T09:42:57;101984.28;;;0.79;61.62
51468;BME280;37545;45.302;-122.946;2022-11-20T09:45:38;101983.13;;;0.76;62.08
51468;BME280;37545;45.302;-122.946;2022-11-20T09:48:28;101988.22;;;0.76;62.33
51468;BME280;37545;45.302;-122.946;2022-11-20T09:51:07;101977.91;;;0.74;62.12
51468;BME280;37545;45.302;-122.946;2022-11-20T09:53:46;101984.34;;;0.71;62.31
51468;BME280;37545;45.302;-122.946;2022-11-20T09:56:20;101980.66;;;0.67;62.72
51468;BME280;37545;45.302;-122.946;2022-11-20T09:58:51;101975.56;;;0.67;62.67
51468;BME280;37545;45.302;-122.946;2022-11-20T10:01:22;101973.75;;;0.66;62.65
51468;BME280;37545;45.302;-122.946;2022-11-20T10:03:57;101976.94;;;0.63;62.53
51468;BME280;37545;45.302;-122.946;2022-11-20T10:06:31;101968.00;;;0.58;62.72
51468;BME280;37545;45.302;-122.946;2022-11-20T10:09:16;101977.94;;;0.55;62.54
51468;BME280;37545;45.302;-122.946;2022-11-20T10:11:51;101980.19;;;0.52;63.32
51468;BME280;37545;45.302;-122.946;2022-11-20T10:14:31;101984.22;;;0.50;62.62
51468;BME280;37545;45.302;-122.946;2022-11-20T10:17:11;101997.47;;;0.46;63.06
51468;BME280;37545;45.302;-122.946;2022-11-20T10:19:56;101988.50;;;0.41;63.05
51468;BME280;37545;45.302;-122.946;2022-11-20T10:22:40;101996.91;;;0.40;63.32
51468;BME280;37545;45.302;-122.946;2022-11-20T10:25:15;102001.13;;;0.39;63.77
51468;BME280;37545;45.302;-122.946;2022-11-20T10:28:09;102007.72;;;0.37;63.75
51468;BME280;37545;45.302;-122.946;2022-11-20T10:30:43;101998.16;;;0.35;64.04
51468;BME280;37545;45.302;-122.946;2022-11-20T10:33:16;102001.75;;;0.37;64.39
51468;BME280;37545;45.302;-122.946;2022-11-20T10:36:00;102006.84;;;0.37;64.72
51468;BME280;37545;45.302;-122.946;2022-11-20T10:38:43;102003.25;;;0.35;64.88
51468;BME280;37545;45.302;-122.946;2022-11-20T10:41:20;102013.13;;;0.32;64.63
51468;BME280;37545;45.302;-122.946;2022-11-20T10:44:03;102017.19;;;0.30;64.72
51468;BME280;37545;45.302;-122.946;2022-11-20T10:46:38;102009.44;;;0.28;64.71
51468;BME280;37545;45.302;-122.946;2022-11-20T10:49:13;102012.88;;;0.29;65.04
51468;BME280;37545;45.302;-122.946;2022-11-20T10:51:52;102011.38;;;0.31;64.82
51468;BME280;37545;45.302;-122.946;2022-11-20T10:54:32;102008.81;;;0.31;64.32
51468;BME280;37545;45.302;-122.946;2022-11-20T10:57:13;102008.66;;;0.29;64.54
51468;BME280;37545;45.302;-122.946;2022-11-20T10:59:55;101985.69;;;0.19;65.09
51468;BME280;37545;45.302;-122.946;2022-11-20T11:02:34;102003.72;;;0.31;65.12
51468;BME280;37545;45.302;-122.946;2022-11-20T11:05:18;102004.47;;;0.30;65.10
51468;BME280;37545;45.302;-122.946;2022-11-20T11:07:54;102001.19;;;0.31;65.20
51468;BME280;37545;45.302;-122.946;2022-11-20T11:10:28;102008.97;;;0.32;64.95
51468;BME280;37545;45.302;-122.946;2022-11-20T11:13:00;102003.56;;;0.29;65.06
51468;BME280;37545;45.302;-122.946;2022-11-20T11:15:35;102008.34;;;0.35;65.39
51468;BME280;37545;45.302;-122.946;2022-11-20T11:18:07;102011.63;;;0.34;65.75
51468;BME280;37545;45.302;-122.946;2022-11-20T11:20:37;102015.06;;;0.34;65.32
51468;BME280;37545;45.302;-122.946;2022-11-20T11:23:29;102023.63;;;0.35;65.94
51468;BME280;37545;45.302;-122.946;2022-11-20T11:26:00;102023.63;;;0.35;65.29
51468;BME280;37545;45.302;-122.946;2022-11-20T11:28:29;102022.69;;;0.34;65.28
51468;BME280;37545;45.302;-122.946;2022-11-20T11:30:58;102026.91;;;0.34;65.99
51468;BME280;37545;45.302;-122.946;2022-11-20T11:33:28;102026.91;;;0.34;66.22
51468;BME280;37545;45.302;-122.946;2022-11-20T11:36:01;102025.41;;;0.36;66.26
51468;BME280;37545;45.302;-122.946;2022-11-20T11:38:35;102033.28;;;0.39;65.68
51468;BME280;37545;45.302;-122.946;2022-11-20T11:41:06;102031.78;;;0.41;66.08
51468;BME280;37545;45.302;-122.946;2022-11-20T11:43:39;102026.84;;;0.43;66.17
51468;BME280;37545;45.302;-122.946;2022-11-20T11:46:29;102040.75;;;0.46;65.92
51468;BME280;37545;45.302;-122.946;2022-11-20T11:48:59;102033.13;;;0.46;66.32
51468;BME280;37545;45.302;-122.946;2022-11-20T11:51:34;102036.81;;;0.50;66.27
51468;BME280;37545;45.302;-122.946;2022-11-20T11:54:13;102042.81;;;0.50;66.71
51468;BME280;37545;45.302;-122.946;2022-11-20T11:56:45;102032.03;;;0.53;66.10
51468;BME280;37545;45.302;-122.946;2022-11-20T11:59:18;102033.94;;;0.55;65.87
51468;BME280;37545;45.302;-122.946;2022-11-20T12:01:56;102027.34;;;0.57;65.96
51468;BME280;37545;45.302;-122.946;2022-11-20T12:04:40;102004.34;;;0.47;66.15
51468;BME280;37545;45.302;-122.946;2022-11-20T12:07:13;102020.72;;;0.59;65.89
51468;BME280;37545;45.302;-122.946;2022-11-20T12:09:48;102031.19;;;0.62;65.92
51468;BME280;37545;45.302;-122.946;2022-11-20T12:12:24;102029.38;;;0.61;65.80
51468;BME280;37545;45.302;-122.946;2022-11-20T12:14:58;102031.31;;;0.64;65.45
51468;BME280;37545;45.302;-122.946;2022-11-20T12:17:27;102026.38;;;0.66;65.25
51468;BME280;37545;45.302;-122.946;2022-11-20T12:19:55;102030.56;;;0.65;65.70
51468;BME280;37545;45.302;-122.946;2022-11-20T12:22:34;102028.19;;;0.67;65.54
51468;BME280;37545;45.302;-122.946;2022-11-20T12:25:10;102027.25;;;0.66;65.76
51468;BME280;37545;45.302;-122.946;2022-11-20T12:28:02;102027.25;;;0.66;65.98
51468;BME280;37545;45.302;-122.946;2022-11-20T12:30:38;102025.47;;;0.65;65.02
51468;BME280;37545;45.302;-122.946;2022-11-20T12:36:20;102026.09;;;0.62;65.50
51468;BME280;37545;45.302;-122.946;2022-11-20T12:42:20;102023.56;;;0.62;66.08
51468;BME280;37545;45.302;-122.946;2022-11-20T12:45:17;102031.94;;;0.61;65.77
51468;BME280;37545;45.302;-122.946;2022-11-20T12:48:01;102032.56;;;0.59;65.50
51468;BME280;37545;45.302;-122.946;2022-11-20T12:50:41;102035.00;;;0.57;65.98
51468;BME280;37545;45.302;-122.946;2022-11-20T12:53:25;102035.72;;;0.56;65.28
51468;BME280;37545;45.302;-122.946;2022-11-20T12:56:00;102035.72;;;0.56;65.78
51468;BME280;37545;45.302;-122.946;2022-11-20T12:58:41;102044.00;;;0.54;65.28
51468;BME280;37545;45.302;-122.946;2022-11-20T13:01:25;102050.13;;;0.56;66.26
51468;BME280;37545;45.302;-122.946;2022-11-20T13:04:23;102047.44;;;0.54;66.40